Surry, Maine
Current Conditions -  °F | °C
As of 2:15 PM on Friday 24 Oct 2014 (Local Time) from KBHB Reporting Station
Overcast Overcast  
Wind Chill:   Ceiling: 900
Heat Index:   Visibility: 10mi
Dew Point:   Wind: 14mph
Humidity: 100%   Direction: 360°N
Pressure: 29.6"   Gusts: 20mph
Location:  44.5°N, 68.5°W
Report Text: KBHB 241815Z AUTO 36012G17KT 10SM OVC009 09/09 A2960 RMK AO1
Loading
Personal Weather Stations






























Interactive Weather Map
Tropical Storm Tracking
New forecast layout! Learn more

10-Day Weather Forecast

Advertisements
Track Severe Weather on mobile